Washington, DC (20306)

4:01 PM EDT on May 05, 2015 (GMT -0400)
Takoma, DC | | Change Station
CLOSE
Current Station
Personal Weather Station
Location: Washington, DC
Elevation: 279 ft
Nearby Weather Stations

Elev 279 ft 38.97 °N, 77.01 °W | Updated 44 seconds ago

Partly Cloudy
Partly Cloudy
89.0 °F
Feels Like 88 °F
N
0.0
Wind Variable Wind from NNE
Gusts 3.0 mph

Today
High -- | Low -- °F
--% Chance of Precip.
Yesterday
High -- | Low -- °F
Precip. -- in
6:05 AM 8:04 PM
Full, 97% visible
Pressure 30.19 in
Visibility 10.0 miles
Clouds Mostly Cloudy 8000 ft
Mostly Cloudy 10000 ft
Heat Index 88 °F
Dew Point 59 °F
Humidity 36%
Rainfall 0.00 in
Snow Depth Not available.
UV 4 out of 12
Pollen 9.20 out of 12
Air Quality Not available.
Flu Activity Sporadic
METAR KCGS 051955Z AUTO 33005KT 10SM BKN080 BKN100 30/12 A3019 RMK AO1

More Conditions Fewer Conditions

Pressure 30.19 in
Visibility 10.0 miles
Clouds Mostly Cloudy 8000 ft
Mostly Cloudy 10000 ft
Heat Index 88 °F
Dew Point 59 °F
Humidity 36%
Rainfall 0.00 in
Snow Depth Not available.
UV 4 out of 12
Pollen 9.20 out of 12
Air Quality Not available.
Flu Activity Sporadic
METAR KCGS 051955Z AUTO 33005KT 10SM BKN080 BKN100 30/12 A3019 RMK AO1

More Conditions Fewer Conditions

10-Day Weather Forecast

Almanac

Astronomy

May. 05, 2015 Rise Set
Actual Time
Civil Twilight
Nautical Twilight
Astronomical Twilight
Moon
Length of Visible Light
Length of Day
Tomorrow will be .
, % of the Moon is Illuminated

Today's Extremes

State Highs State Lows

Community

WunderPhotos

Upload Photos

1,818,965 photos uploaded!

WunderBlogs® & News

Nearby

Air Quality

  Air Quality AQ Index Pollutant
Not available.

Snow Depth

Station Depth Elevation

Earthquake Activity

City Distance Mag. Time & Date
Minimum magnitude displayed is 2.5.

Coastal Water Temperatures

Place Temperature

Stations

Nearby Weather Stations

Station Location Temp. Windchill Dew Point Humidity Wind Precip. Elev Updated Type